sensor_id;sensor_type;location;lat;lon;timestamp;P1;durP1;ratioP1;P2;durP2;ratioP2
24681;SDS011;12802;53.390;-2.328;2023-07-20T00:01:59;10.43;;;5.50;;
24681;SDS011;12802;53.390;-2.328;2023-07-20T00:04:25;8.75;;;4.30;;
24681;SDS011;12802;53.390;-2.328;2023-07-20T00:06:51;9.82;;;4.82;;
24681;SDS011;12802;53.390;-2.328;2023-07-20T00:09:16;6.30;;;4.90;;
24681;SDS011;12802;53.390;-2.328;2023-07-20T00:11:48;6.38;;;4.60;;
24681;SDS011;12802;53.390;-2.328;2023-07-20T00:14:16;8.82;;;5.15;;
24681;SDS011;12802;53.390;-2.328;2023-07-20T00:16:42;9.07;;;5.40;;
24681;SDS011;12802;53.390;-2.328;2023-07-20T00:19:07;8.85;;;5.13;;
24681;SDS011;12802;53.390;-2.328;2023-07-20T00:21:35;9.52;;;5.32;;
24681;SDS011;12802;53.390;-2.328;2023-07-20T00:24:01;10.75;;;4.88;;
24681;SDS011;12802;53.390;-2.328;2023-07-20T00:26:26;10.45;;;5.50;;
24681;SDS011;12802;53.390;-2.328;2023-07-20T00:28:52;12.02;;;6.38;;
24681;SDS011;12802;53.390;-2.328;2023-07-20T00:31:18;13.05;;;6.55;;
24681;SDS011;12802;53.390;-2.328;2023-07-20T00:33:44;10.23;;;5.97;;
24681;SDS011;12802;53.390;-2.328;2023-07-20T00:36:10;8.45;;;5.35;;
24681;SDS011;12802;53.390;-2.328;2023-07-20T00:38:36;11.15;;;6.50;;
24681;SDS011;12802;53.390;-2.328;2023-07-20T00:41:02;10.07;;;6.28;;
24681;SDS011;12802;53.390;-2.328;2023-07-20T00:43:28;10.35;;;6.07;;
24681;SDS011;12802;53.390;-2.328;2023-07-20T00:45:54;7.03;;;5.75;;
24681;SDS011;12802;53.390;-2.328;2023-07-20T00:48:20;11.95;;;5.55;;
24681;SDS011;12802;53.390;-2.328;2023-07-20T00:50:46;9.35;;;6.15;;
24681;SDS011;12802;53.390;-2.328;2023-07-20T00:53:13;10.50;;;5.70;;
24681;SDS011;12802;53.390;-2.328;2023-07-20T00:55:39;11.77;;;5.88;;
24681;SDS011;12802;53.390;-2.328;2023-07-20T00:58:06;11.05;;;5.38;;
24681;SDS011;12802;53.390;-2.328;2023-07-20T01:00:34;12.10;;;6.82;;
24681;SDS011;12802;53.390;-2.328;2023-07-20T01:02:59;9.32;;;7.00;;
24681;SDS011;12802;53.390;-2.328;2023-07-20T01:05:29;10.63;;;7.28;;
24681;SDS011;12802;53.390;-2.328;2023-07-20T01:08:31;9.82;;;7.18;;
24681;SDS011;12802;53.390;-2.328;2023-07-20T01:11:21;12.45;;;7.25;;
24681;SDS011;12802;53.390;-2.328;2023-07-20T01:13:55;11.63;;;7.38;;
24681;SDS011;12802;53.390;-2.328;2023-07-20T01:16:21;12.75;;;6.90;;
24681;SDS011;12802;53.390;-2.328;2023-07-20T01:18:46;12.38;;;7.00;;
24681;SDS011;12802;53.390;-2.328;2023-07-20T01:21:13;15.40;;;8.48;;
24681;SDS011;12802;53.390;-2.328;2023-07-20T01:24:15;13.95;;;7.97;;
24681;SDS011;12802;53.390;-2.328;2023-07-20T01:30:03;13.60;;;7.78;;
24681;SDS011;12802;53.390;-2.328;2023-07-20T01:32:33;12.50;;;9.50;;
24681;SDS011;12802;53.390;-2.328;2023-07-20T01:35:00;12.65;;;8.50;;
24681;SDS011;12802;53.390;-2.328;2023-07-20T01:37:27;11.57;;;8.90;;
24681;SDS011;12802;53.390;-2.328;2023-07-20T01:39:55;17.45;;;12.20;;
24681;SDS011;12802;53.390;-2.328;2023-07-20T01:42:22;15.63;;;11.05;;
24681;SDS011;12802;53.390;-2.328;2023-07-20T01:44:52;14.73;;;11.40;;
24681;SDS011;12802;53.390;-2.328;2023-07-20T01:47:18;16.85;;;12.25;;
24681;SDS011;12802;53.390;-2.328;2023-07-20T01:49:44;17.52;;;12.05;;
24681;SDS011;12802;53.390;-2.328;2023-07-20T01:52:10;17.80;;;11.38;;
24681;SDS011;12802;53.390;-2.328;2023-07-20T01:54:36;18.85;;;11.35;;
24681;SDS011;12802;53.390;-2.328;2023-07-20T01:57:02;15.43;;;10.63;;
24681;SDS011;12802;53.390;-2.328;2023-07-20T01:59:28;16.00;;;10.88;;
24681;SDS011;12802;53.390;-2.328;2023-07-20T02:01:54;16.10;;;10.80;;
24681;SDS011;12802;53.390;-2.328;2023-07-20T02:04:19;15.57;;;11.13;;
24681;SDS011;12802;53.390;-2.328;2023-07-20T02:06:45;16.65;;;12.05;;
24681;SDS011;12802;53.390;-2.328;2023-07-20T02:09:11;15.05;;;11.88;;
24681;SDS011;12802;53.390;-2.328;2023-07-20T02:11:37;22.17;;;11.68;;
24681;SDS011;12802;53.390;-2.328;2023-07-20T02:14:02;19.08;;;11.85;;
24681;SDS011;12802;53.390;-2.328;2023-07-20T02:16:28;15.57;;;12.38;;
24681;SDS011;12802;53.390;-2.328;2023-07-20T02:18:56;15.20;;;12.25;;
24681;SDS011;12802;53.390;-2.328;2023-07-20T02:21:22;25.55;;;13.07;;
24681;SDS011;12802;53.390;-2.328;2023-07-20T02:23:48;20.45;;;12.50;;
24681;SDS011;12802;53.390;-2.328;2023-07-20T02:26:14;15.93;;;12.15;;
24681;SDS011;12802;53.390;-2.328;2023-07-20T02:28:40;19.00;;;13.15;;
24681;SDS011;12802;53.390;-2.328;2023-07-20T02:31:06;18.13;;;11.20;;
24681;SDS011;12802;53.390;-2.328;2023-07-20T02:33:32;17.02;;;13.10;;
24681;SDS011;12802;53.390;-2.328;2023-07-20T02:35:58;17.40;;;13.50;;
24681;SDS011;12802;53.390;-2.328;2023-07-20T02:38:24;17.90;;;12.60;;
24681;SDS011;12802;53.390;-2.328;2023-07-20T02:40:49;17.70;;;12.65;;
24681;SDS011;12802;53.390;-2.328;2023-07-20T02:43:16;20.48;;;13.90;;
24681;SDS011;12802;53.390;-2.328;2023-07-20T02:45:42;18.42;;;13.20;;
24681;SDS011;12802;53.390;-2.328;2023-07-20T02:48:09;17.95;;;13.07;;
24681;SDS011;12802;53.390;-2.328;2023-07-20T02:50:35;18.13;;;12.93;;
24681;SDS011;12802;53.390;-2.328;2023-07-20T02:53:01;17.58;;;13.43;;
24681;SDS011;12802;53.390;-2.328;2023-07-20T02:55:27;20.02;;;13.90;;
24681;SDS011;12802;53.390;-2.328;2023-07-20T02:57:52;20.17;;;13.60;;
24681;SDS011;12802;53.390;-2.328;2023-07-20T03:00:18;17.60;;;13.23;;
24681;SDS011;12802;53.390;-2.328;2023-07-20T03:05:14;17.55;;;12.48;;
24681;SDS011;12802;53.390;-2.328;2023-07-20T03:07:42;17.80;;;12.57;;
24681;SDS011;12802;53.390;-2.328;2023-07-20T03:10:08;15.65;;;12.48;;
24681;SDS011;12802;53.390;-2.328;2023-07-20T03:12:35;21.95;;;14.13;;
24681;SDS011;12802;53.390;-2.328;2023-07-20T03:15:01;16.13;;;12.35;;
24681;SDS011;12802;53.390;-2.328;2023-07-20T03:17:28;16.05;;;12.55;;
24681;SDS011;12802;53.390;-2.328;2023-07-20T03:19:55;18.33;;;12.48;;
24681;SDS011;12802;53.390;-2.328;2023-07-20T03:22:21;18.25;;;12.90;;
24681;SDS011;12802;53.390;-2.328;2023-07-20T03:24:47;17.52;;;12.70;;
24681;SDS011;12802;53.390;-2.328;2023-07-20T03:27:13;18.15;;;13.43;;
24681;SDS011;12802;53.390;-2.328;2023-07-20T03:29:39;15.52;;;12.98;;
24681;SDS011;12802;53.390;-2.328;2023-07-20T03:32:05;18.30;;;13.50;;
24681;SDS011;12802;53.390;-2.328;2023-07-20T03:34:31;20.48;;;14.27;;
24681;SDS011;12802;53.390;-2.328;2023-07-20T03:36:57;16.88;;;13.07;;
24681;SDS011;12802;53.390;-2.328;2023-07-20T03:39:26;18.08;;;12.93;;
24681;SDS011;12802;53.390;-2.328;2023-07-20T03:41:53;19.65;;;13.88;;
24681;SDS011;12802;53.390;-2.328;2023-07-20T03:44:19;18.90;;;12.63;;
24681;SDS011;12802;53.390;-2.328;2023-07-20T03:46:44;20.48;;;14.35;;
24681;SDS011;12802;53.390;-2.328;2023-07-20T03:49:10;18.60;;;12.90;;
24681;SDS011;12802;53.390;-2.328;2023-07-20T03:51:36;17.40;;;12.35;;
24681;SDS011;12802;53.390;-2.328;2023-07-20T03:54:02;17.65;;;13.63;;
24681;SDS011;12802;53.390;-2.328;2023-07-20T03:56:28;17.63;;;13.45;;
24681;SDS011;12802;53.390;-2.328;2023-07-20T03:58:53;15.43;;;12.77;;
24681;SDS011;12802;53.390;-2.328;2023-07-20T04:01:19;19.13;;;12.80;;
24681;SDS011;12802;53.390;-2.328;2023-07-20T04:03:45;15.20;;;12.65;;
24681;SDS011;12802;53.390;-2.328;2023-07-20T04:06:11;16.08;;;13.07;;
24681;SDS011;12802;53.390;-2.328;2023-07-20T04:08:37;15.82;;;12.85;;
24681;SDS011;12802;53.390;-2.328;2023-07-20T04:11:03;17.40;;;12.98;;
24681;SDS011;12802;53.390;-2.328;2023-07-20T04:13:28;16.45;;;12.48;;
24681;SDS011;12802;53.390;-2.328;2023-07-20T04:15:58;17.20;;;12.73;;
24681;SDS011;12802;53.390;-2.328;2023-07-20T04:18:24;20.10;;;13.52;;
24681;SDS011;12802;53.390;-2.328;2023-07-20T04:20:50;19.80;;;12.82;;
24681;SDS011;12802;53.390;-2.328;2023-07-20T04:23:15;18.33;;;12.18;;
24681;SDS011;12802;53.390;-2.328;2023-07-20T04:25:42;23.70;;;13.00;;
24681;SDS011;12802;53.390;-2.328;2023-07-20T04:28:10;16.20;;;12.38;;
24681;SDS011;12802;53.390;-2.328;2023-07-20T04:30:38;16.13;;;12.52;;
24681;SDS011;12802;53.390;-2.328;2023-07-20T04:33:07;19.10;;;13.48;;
24681;SDS011;12802;53.390;-2.328;2023-07-20T04:35:50;22.70;;;13.70;;
24681;SDS011;12802;53.390;-2.328;2023-07-20T04:38:23;20.20;;;14.48;;
24681;SDS011;12802;53.390;-2.328;2023-07-20T04:40:56;16.98;;;12.85;;
24681;SDS011;12802;53.390;-2.328;2023-07-20T04:43:21;20.98;;;13.75;;
24681;SDS011;12802;53.390;-2.328;2023-07-20T04:45:47;17.50;;;12.60;;
24681;SDS011;12802;53.390;-2.328;2023-07-20T04:48:14;18.70;;;13.27;;
24681;SDS011;12802;53.390;-2.328;2023-07-20T04:50:47;18.33;;;12.90;;
24681;SDS011;12802;53.390;-2.328;2023-07-20T04:53:13;20.75;;;13.30;;
24681;SDS011;12802;53.390;-2.328;2023-07-20T04:55:40;20.00;;;12.77;;
24681;SDS011;12802;53.390;-2.328;2023-07-20T04:58:12;18.25;;;13.30;;
24681;SDS011;12802;53.390;-2.328;2023-07-20T05:00:38;14.02;;;11.45;;
24681;SDS011;12802;53.390;-2.328;2023-07-20T05:03:05;14.80;;;11.82;;
24681;SDS011;12802;53.390;-2.328;2023-07-20T05:05:30;19.40;;;12.43;;
24681;SDS011;12802;53.390;-2.328;2023-07-20T05:07:57;18.80;;;12.60;;
24681;SDS011;12802;53.390;-2.328;2023-07-20T05:10:23;13.95;;;10.50;;
24681;SDS011;12802;53.390;-2.328;2023-07-20T05:12:49;17.75;;;13.32;;
24681;SDS011;12802;53.390;-2.328;2023-07-20T05:15:15;13.93;;;11.73;;
24681;SDS011;12802;53.390;-2.328;2023-07-20T05:17:41;18.20;;;12.00;;
24681;SDS011;12802;53.390;-2.328;2023-07-20T05:20:07;16.30;;;12.30;;
24681;SDS011;12802;53.390;-2.328;2023-07-20T05:22:36;18.10;;;11.83;;
24681;SDS011;12802;53.390;-2.328;2023-07-20T05:25:05;20.63;;;12.50;;
24681;SDS011;12802;53.390;-2.328;2023-07-20T05:27:33;15.32;;;12.15;;
24681;SDS011;12802;53.390;-2.328;2023-07-20T05:29:59;18.20;;;12.93;;
24681;SDS011;12802;53.390;-2.328;2023-07-20T05:32:25;19.35;;;13.52;;
24681;SDS011;12802;53.390;-2.328;2023-07-20T05:34:52;14.65;;;11.38;;
24681;SDS011;12802;53.390;-2.328;2023-07-20T05:37:20;16.55;;;11.20;;
24681;SDS011;12802;53.390;-2.328;2023-07-20T05:39:46;18.02;;;11.27;;
24681;SDS011;12802;53.390;-2.328;2023-07-20T05:42:12;17.27;;;12.23;;
24681;SDS011;12802;53.390;-2.328;2023-07-20T05:44:37;16.95;;;11.77;;
24681;SDS011;12802;53.390;-2.328;2023-07-20T05:47:04;15.50;;;11.90;;
24681;SDS011;12802;53.390;-2.328;2023-07-20T05:49:30;17.48;;;11.30;;
24681;SDS011;12802;53.390;-2.328;2023-07-20T05:51:55;17.73;;;10.63;;
24681;SDS011;12802;53.390;-2.328;2023-07-20T05:54:22;14.82;;;10.23;;
24681;SDS011;12802;53.390;-2.328;2023-07-20T05:56:49;17.42;;;10.95;;
24681;SDS011;12802;53.390;-2.328;2023-07-20T05:59:15;17.05;;;12.77;;
24681;SDS011;12802;53.390;-2.328;2023-07-20T06:01:41;20.55;;;11.70;;
24681;SDS011;12802;53.390;-2.328;2023-07-20T06:04:08;17.60;;;10.80;;
24681;SDS011;12802;53.390;-2.328;2023-07-20T06:06:34;19.40;;;11.20;;
24681;SDS011;12802;53.390;-2.328;2023-07-20T06:09:00;15.38;;;11.10;;
24681;SDS011;12802;53.390;-2.328;2023-07-20T06:11:29;20.40;;;13.00;;
24681;SDS011;12802;53.390;-2.328;2023-07-20T06:13:56;19.98;;;13.13;;
24681;SDS011;12802;53.390;-2.328;2023-07-20T06:16:22;21.40;;;13.82;;
24681;SDS011;12802;53.390;-2.328;2023-07-20T06:18:48;23.15;;;13.15;;
24681;SDS011;12802;53.390;-2.328;2023-07-20T06:21:13;21.88;;;14.00;;
24681;SDS011;12802;53.390;-2.328;2023-07-20T06:23:39;26.63;;;13.77;;
24681;SDS011;12802;53.390;-2.328;2023-07-20T06:26:06;23.83;;;16.38;;
24681;SDS011;12802;53.390;-2.328;2023-07-20T06:28:32;24.55;;;15.52;;
24681;SDS011;12802;53.390;-2.328;2023-07-20T06:31:01;28.85;;;17.70;;
24681;SDS011;12802;53.390;-2.328;2023-07-20T06:33:28;28.23;;;17.85;;
24681;SDS011;12802;53.390;-2.328;2023-07-20T06:35:54;27.98;;;18.02;;
24681;SDS011;12802;53.390;-2.328;2023-07-20T06:38:19;26.67;;;18.65;;
24681;SDS011;12802;53.390;-2.328;2023-07-20T06:40:46;25.48;;;19.17;;
24681;SDS011;12802;53.390;-2.328;2023-07-20T06:43:12;32.05;;;19.60;;
24681;SDS011;12802;53.390;-2.328;2023-07-20T06:45:37;28.50;;;19.52;;
24681;SDS011;12802;53.390;-2.328;2023-07-20T06:48:03;30.02;;;20.00;;
24681;SDS011;12802;53.390;-2.328;2023-07-20T06:50:29;29.23;;;19.30;;
24681;SDS011;12802;53.390;-2.328;2023-07-20T06:52:55;30.70;;;19.77;;
24681;SDS011;12802;53.390;-2.328;2023-07-20T06:55:21;27.90;;;18.67;;
24681;SDS011;12802;53.390;-2.328;2023-07-20T06:57:46;31.63;;;20.02;;
24681;SDS011;12802;53.390;-2.328;2023-07-20T07:00:12;28.60;;;19.80;;
24681;SDS011;12802;53.390;-2.328;2023-07-20T07:02:38;25.90;;;18.83;;
24681;SDS011;12802;53.390;-2.328;2023-07-20T07:05:04;23.42;;;17.65;;
24681;SDS011;12802;53.390;-2.328;2023-07-20T07:07:31;28.60;;;18.83;;
24681;SDS011;12802;53.390;-2.328;2023-07-20T07:09:57;27.45;;;19.63;;
24681;SDS011;12802;53.390;-2.328;2023-07-20T07:12:23;25.13;;;18.77;;
24681;SDS011;12802;53.390;-2.328;2023-07-20T07:14:48;24.42;;;18.60;;
24681;SDS011;12802;53.390;-2.328;2023-07-20T07:17:14;25.65;;;19.45;;
24681;SDS011;12802;53.390;-2.328;2023-07-20T07:19:40;30.65;;;19.23;;
24681;SDS011;12802;53.390;-2.328;2023-07-20T07:22:06;30.50;;;20.50;;
24681;SDS011;12802;53.390;-2.328;2023-07-20T07:24:31;28.35;;;18.88;;
24681;SDS011;12802;53.390;-2.328;2023-07-20T07:27:01;26.23;;;19.05;;
24681;SDS011;12802;53.390;-2.328;2023-07-20T07:29:27;26.75;;;19.88;;
24681;SDS011;12802;53.390;-2.328;2023-07-20T07:31:53;29.90;;;19.08;;
24681;SDS011;12802;53.390;-2.328;2023-07-20T07:34:19;33.20;;;20.10;;
24681;SDS011;12802;53.390;-2.328;2023-07-20T07:36:44;33.88;;;19.58;;
24681;SDS011;12802;53.390;-2.328;2023-07-20T07:39:10;31.48;;;20.73;;
24681;SDS011;12802;53.390;-2.328;2023-07-20T07:41:36;28.63;;;20.48;;
24681;SDS011;12802;53.390;-2.328;2023-07-20T07:44:02;28.45;;;19.33;;
24681;SDS011;12802;53.390;-2.328;2023-07-20T07:46:28;31.27;;;18.60;;
24681;SDS011;12802;53.390;-2.328;2023-07-20T07:48:54;27.98;;;19.83;;
24681;SDS011;12802;53.390;-2.328;2023-07-20T07:51:19;25.95;;;18.33;;
24681;SDS011;12802;53.390;-2.328;2023-07-20T07:53:45;27.10;;;19.45;;
24681;SDS011;12802;53.390;-2.328;2023-07-20T07:56:11;27.10;;;18.88;;
24681;SDS011;12802;53.390;-2.328;2023-07-20T07:58:37;32.13;;;19.58;;
24681;SDS011;12802;53.390;-2.328;2023-07-20T08:01:03;31.30;;;19.75;;
24681;SDS011;12802;53.390;-2.328;2023-07-20T08:03:29;26.73;;;17.42;;
24681;SDS011;12802;53.390;-2.328;2023-07-20T08:05:55;27.85;;;17.15;;
24681;SDS011;12802;53.390;-2.328;2023-07-20T08:08:21;26.98;;;18.48;;
24681;SDS011;12802;53.390;-2.328;2023-07-20T08:10:47;24.83;;;17.63;;
24681;SDS011;12802;53.390;-2.328;2023-07-20T08:13:13;21.83;;;16.42;;
24681;SDS011;12802;53.390;-2.328;2023-07-20T08:15:39;19.33;;;15.07;;
24681;SDS011;12802;53.390;-2.328;2023-07-20T08:18:11;22.63;;;15.73;;
24681;SDS011;12802;53.390;-2.328;2023-07-20T08:20:36;22.77;;;14.10;;
24681;SDS011;12802;53.390;-2.328;2023-07-20T08:23:02;20.77;;;14.45;;
24681;SDS011;12802;53.390;-2.328;2023-07-20T08:25:28;24.98;;;15.43;;
24681;SDS011;12802;53.390;-2.328;2023-07-20T08:27:54;19.55;;;13.93;;
24681;SDS011;12802;53.390;-2.328;2023-07-20T08:30:21;18.33;;;13.50;;
24681;SDS011;12802;53.390;-2.328;2023-07-20T08:32:47;18.25;;;13.75;;
24681;SDS011;12802;53.390;-2.328;2023-07-20T08:35:13;18.83;;;13.05;;
24681;SDS011;12802;53.390;-2.328;2023-07-20T08:37:40;18.60;;;13.25;;
24681;SDS011;12802;53.390;-2.328;2023-07-20T08:40:06;21.85;;;14.38;;
24681;SDS011;12802;53.390;-2.328;2023-07-20T08:42:33;15.25;;;12.02;;
24681;SDS011;12802;53.390;-2.328;2023-07-20T08:44:59;16.73;;;11.45;;
24681;SDS011;12802;53.390;-2.328;2023-07-20T08:47:25;13.93;;;10.23;;
24681;SDS011;12802;53.390;-2.328;2023-07-20T08:49:51;18.30;;;12.27;;
24681;SDS011;12802;53.390;-2.328;2023-07-20T08:52:19;19.25;;;11.13;;
24681;SDS011;12802;53.390;-2.328;2023-07-20T08:54:45;14.02;;;12.15;;
24681;SDS011;12802;53.390;-2.328;2023-07-20T08:57:11;17.23;;;12.00;;
24681;SDS011;12802;53.390;-2.328;2023-07-20T08:59:39;14.67;;;11.70;;
24681;SDS011;12802;53.390;-2.328;2023-07-20T09:02:06;18.75;;;10.23;;
24681;SDS011;12802;53.390;-2.328;2023-07-20T09:04:36;15.40;;;11.68;;
24681;SDS011;12802;53.390;-2.328;2023-07-20T09:07:02;14.38;;;10.75;;
24681;SDS011;12802;53.390;-2.328;2023-07-20T09:09:28;18.52;;;10.60;;
24681;SDS011;12802;53.390;-2.328;2023-07-20T09:11:53;15.02;;;10.10;;
24681;SDS011;12802;53.390;-2.328;2023-07-20T09:14:19;14.65;;;10.07;;
24681;SDS011;12802;53.390;-2.328;2023-07-20T09:16:48;14.37;;;10.53;;
24681;SDS011;12802;53.390;-2.328;2023-07-20T09:19:16;14.88;;;11.30;;
24681;SDS011;12802;53.390;-2.328;2023-07-20T09:21:49;17.02;;;11.40;;
24681;SDS011;12802;53.390;-2.328;2023-07-20T09:24:17;15.70;;;10.90;;
24681;SDS011;12802;53.390;-2.328;2023-07-20T09:26:44;14.15;;;10.77;;
24681;SDS011;12802;53.390;-2.328;2023-07-20T09:29:13;16.75;;;12.05;;
24681;SDS011;12802;53.390;-2.328;2023-07-20T09:31:39;15.20;;;10.60;;
24681;SDS011;12802;53.390;-2.328;2023-07-20T09:34:06;13.85;;;10.70;;
24681;SDS011;12802;53.390;-2.328;2023-07-20T09:36:38;13.02;;;10.27;;
24681;SDS011;12802;53.390;-2.328;2023-07-20T09:39:04;14.25;;;10.68;;
24681;SDS011;12802;53.390;-2.328;2023-07-20T09:41:30;13.77;;;10.80;;
24681;SDS011;12802;53.390;-2.328;2023-07-20T09:44:05;13.27;;;10.52;;
24681;SDS011;12802;53.390;-2.328;2023-07-20T09:46:46;14.10;;;10.20;;
24681;SDS011;12802;53.390;-2.328;2023-07-20T09:49:19;13.27;;;10.70;;
24681;SDS011;12802;53.390;-2.328;2023-07-20T09:51:45;10.88;;;9.10;;
24681;SDS011;12802;53.390;-2.328;2023-07-20T09:54:13;13.65;;;10.20;;
24681;SDS011;12802;53.390;-2.328;2023-07-20T09:56:39;14.20;;;9.75;;
24681;SDS011;12802;53.390;-2.328;2023-07-20T09:59:05;12.52;;;9.73;;
24681;SDS011;12802;53.390;-2.328;2023-07-20T10:01:32;13.30;;;9.85;;
24681;SDS011;12802;53.390;-2.328;2023-07-20T10:03:59;11.90;;;9.43;;
24681;SDS011;12802;53.390;-2.328;2023-07-20T10:06:29;13.00;;;9.55;;
24681;SDS011;12802;53.390;-2.328;2023-07-20T10:09:00;13.35;;;9.73;;
24681;SDS011;12802;53.390;-2.328;2023-07-20T10:11:34;11.23;;;9.32;;
24681;SDS011;12802;53.390;-2.328;2023-07-20T10:14:04;14.23;;;9.80;;
24681;SDS011;12802;53.390;-2.328;2023-07-20T10:16:34;14.43;;;9.25;;
24681;SDS011;12802;53.390;-2.328;2023-07-20T10:22:03;12.45;;;9.13;;
24681;SDS011;12802;53.390;-2.328;2023-07-20T10:24:39;13.68;;;9.50;;
24681;SDS011;12802;53.390;-2.328;2023-07-20T10:27:06;13.68;;;9.30;;
24681;SDS011;12802;53.390;-2.328;2023-07-20T10:29:32;13.27;;;9.25;;
24681;SDS011;12802;53.390;-2.328;2023-07-20T10:31:59;10.68;;;8.88;;
24681;SDS011;12802;53.390;-2.328;2023-07-20T10:34:26;15.40;;;8.65;;
24681;SDS011;12802;53.390;-2.328;2023-07-20T10:36:53;21.48;;;9.07;;
24681;SDS011;12802;53.390;-2.328;2023-07-20T10:39:25;11.25;;;8.38;;
24681;SDS011;12802;53.390;-2.328;2023-07-20T10:42:09;15.57;;;9.10;;
24681;SDS011;12802;53.390;-2.328;2023-07-20T10:44:38;11.90;;;8.00;;
24681;SDS011;12802;53.390;-2.328;2023-07-20T10:47:14;10.70;;;7.75;;
24681;SDS011;12802;53.390;-2.328;2023-07-20T10:50:01;13.38;;;7.95;;
24681;SDS011;12802;53.390;-2.328;2023-07-20T10:52:26;11.93;;;8.52;;
24681;SDS011;12802;53.390;-2.328;2023-07-20T10:55:15;11.80;;;8.55;;
24681;SDS011;12802;53.390;-2.328;2023-07-20T10:57:41;13.60;;;8.50;;
24681;SDS011;12802;53.390;-2.328;2023-07-20T11:00:11;10.52;;;7.93;;
24681;SDS011;12802;53.390;-2.328;2023-07-20T11:02:46;11.90;;;8.38;;
24681;SDS011;12802;53.390;-2.328;2023-07-20T11:08:11;10.65;;;7.70;;
24681;SDS011;12802;53.390;-2.328;2023-07-20T11:10:37;10.35;;;7.85;;
24681;SDS011;12802;53.390;-2.328;2023-07-20T11:13:17;11.30;;;8.27;;
24681;SDS011;12802;53.390;-2.328;2023-07-20T11:18:22;18.70;;;9.45;;
24681;SDS011;12802;53.390;-2.328;2023-07-20T11:20:51;12.65;;;8.63;;
24681;SDS011;12802;53.390;-2.328;2023-07-20T11:23:20;10.50;;;8.77;;
24681;SDS011;12802;53.390;-2.328;2023-07-20T11:25:46;13.32;;;8.27;;
24681;SDS011;12802;53.390;-2.328;2023-07-20T11:28:12;9.93;;;8.73;;
24681;SDS011;12802;53.390;-2.328;2023-07-20T11:30:38;9.00;;;7.50;;
24681;SDS011;12802;53.390;-2.328;2023-07-20T11:33:04;14.68;;;7.80;;
24681;SDS011;12802;53.390;-2.328;2023-07-20T11:35:34;10.30;;;7.45;;
24681;SDS011;12802;53.390;-2.328;2023-07-20T11:38:01;11.50;;;8.57;;
24681;SDS011;12802;53.390;-2.328;2023-07-20T11:40:27;11.80;;;8.85;;
24681;SDS011;12802;53.390;-2.328;2023-07-20T11:42:53;8.70;;;7.70;;
24681;SDS011;12802;53.390;-2.328;2023-07-20T11:45:19;9.88;;;8.02;;
24681;SDS011;12802;53.390;-2.328;2023-07-20T11:47:45;11.88;;;7.35;;
24681;SDS011;12802;53.390;-2.328;2023-07-20T11:50:11;11.05;;;8.52;;
24681;SDS011;12802;53.390;-2.328;2023-07-20T11:52:39;10.98;;;8.30;;
24681;SDS011;12802;53.390;-2.328;2023-07-20T11:55:05;12.02;;;8.00;;
24681;SDS011;12802;53.390;-2.328;2023-07-20T11:57:32;13.30;;;8.05;;
24681;SDS011;12802;53.390;-2.328;2023-07-20T12:00:00;13.50;;;7.65;;
24681;SDS011;12802;53.390;-2.328;2023-07-20T12:02:33;14.35;;;8.18;;
24681;SDS011;12802;53.390;-2.328;2023-07-20T12:04:59;10.43;;;7.97;;
24681;SDS011;12802;53.390;-2.328;2023-07-20T12:07:26;9.63;;;7.50;;
24681;SDS011;12802;53.390;-2.328;2023-07-20T12:10:09;10.48;;;7.63;;
24681;SDS011;12802;53.390;-2.328;2023-07-20T12:12:39;10.57;;;6.72;;
24681;SDS011;12802;53.390;-2.328;2023-07-20T12:17:52;10.80;;;6.25;;
24681;SDS011;12802;53.390;-2.328;2023-07-20T12:20:35;7.22;;;5.63;;
24681;SDS011;12802;53.390;-2.328;2023-07-20T12:23:10;8.13;;;5.53;;
24681;SDS011;12802;53.390;-2.328;2023-07-20T12:25:37;7.60;;;5.57;;
24681;SDS011;12802;53.390;-2.328;2023-07-20T12:28:11;11.07;;;5.25;;
24681;SDS011;12802;53.390;-2.328;2023-07-20T12:30:39;10.07;;;5.68;;
24681;SDS011;12802;53.390;-2.328;2023-07-20T12:33:06;7.82;;;5.70;;
24681;SDS011;12802;53.390;-2.328;2023-07-20T12:35:32;7.82;;;5.10;;
24681;SDS011;12802;53.390;-2.328;2023-07-20T12:37:58;8.75;;;5.32;;
24681;SDS011;12802;53.390;-2.328;2023-07-20T12:40:25;8.02;;;4.90;;
24681;SDS011;12802;53.390;-2.328;2023-07-20T12:42:50;7.22;;;5.30;;
24681;SDS011;12802;53.390;-2.328;2023-07-20T12:45:16;10.13;;;5.95;;
24681;SDS011;12802;53.390;-2.328;2023-07-20T12:47:42;8.55;;;5.15;;
24681;SDS011;12802;53.390;-2.328;2023-07-20T12:50:11;10.00;;;5.50;;
24681;SDS011;12802;53.390;-2.328;2023-07-20T12:52:38;7.43;;;4.73;;
24681;SDS011;12802;53.390;-2.328;2023-07-20T12:55:06;6.93;;;5.13;;
24681;SDS011;12802;53.390;-2.328;2023-07-20T12:57:36;8.77;;;5.18;;
24681;SDS011;12802;53.390;-2.328;2023-07-20T13:00:03;7.85;;;4.55;;
24681;SDS011;12802;53.390;-2.328;2023-07-20T13:02:32;7.60;;;5.47;;
24681;SDS011;12802;53.390;-2.328;2023-07-20T13:04:58;6.57;;;5.22;;
24681;SDS011;12802;53.390;-2.328;2023-07-20T13:07:31;9.02;;;5.53;;
24681;SDS011;12802;53.390;-2.328;2023-07-20T13:10:02;7.10;;;4.47;;
24681;SDS011;12802;53.390;-2.328;2023-07-20T13:12:29;9.18;;;4.90;;
24681;SDS011;12802;53.390;-2.328;2023-07-20T13:14:56;9.65;;;5.03;;
24681;SDS011;12802;53.390;-2.328;2023-07-20T13:17:26;19.48;;;6.40;;
24681;SDS011;12802;53.390;-2.328;2023-07-20T13:19:52;10.35;;;5.65;;
24681;SDS011;12802;53.390;-2.328;2023-07-20T13:22:18;10.02;;;5.53;;
24681;SDS011;12802;53.390;-2.328;2023-07-20T13:24:45;7.97;;;5.07;;
24681;SDS011;12802;53.390;-2.328;2023-07-20T13:27:17;8.80;;;4.97;;
24681;SDS011;12802;53.390;-2.328;2023-07-20T13:29:43;11.57;;;4.90;;
24681;SDS011;12802;53.390;-2.328;2023-07-20T13:32:09;5.57;;;4.85;;
24681;SDS011;12802;53.390;-2.328;2023-07-20T13:34:35;8.00;;;5.22;;
24681;SDS011;12802;53.390;-2.328;2023-07-20T13:37:01;9.10;;;4.90;;
24681;SDS011;12802;53.390;-2.328;2023-07-20T13:39:28;8.73;;;4.88;;
24681;SDS011;12802;53.390;-2.328;2023-07-20T13:41:54;7.47;;;4.93;;
24681;SDS011;12802;53.390;-2.328;2023-07-20T13:44:20;7.63;;;5.45;;
24681;SDS011;12802;53.390;-2.328;2023-07-20T13:46:47;13.43;;;5.57;;
24681;SDS011;12802;53.390;-2.328;2023-07-20T13:49:13;9.60;;;5.13;;
24681;SDS011;12802;53.390;-2.328;2023-07-20T13:51:39;7.45;;;5.10;;
24681;SDS011;12802;53.390;-2.328;2023-07-20T13:54:06;8.23;;;5.10;;
24681;SDS011;12802;53.390;-2.328;2023-07-20T13:56:32;7.57;;;4.82;;
24681;SDS011;12802;53.390;-2.328;2023-07-20T13:58:58;9.43;;;5.75;;
24681;SDS011;12802;53.390;-2.328;2023-07-20T14:01:23;8.55;;;5.25;;
24681;SDS011;12802;53.390;-2.328;2023-07-20T14:03:50;8.07;;;5.50;;
24681;SDS011;12802;53.390;-2.328;2023-07-20T14:06:16;7.43;;;5.93;;
24681;SDS011;12802;53.390;-2.328;2023-07-20T14:08:42;9.75;;;5.60;;
24681;SDS011;12802;53.390;-2.328;2023-07-20T14:11:11;12.25;;;5.43;;
24681;SDS011;12802;53.390;-2.328;2023-07-20T14:13:38;8.80;;;4.88;;
24681;SDS011;12802;53.390;-2.328;2023-07-20T14:16:04;8.32;;;5.25;;
24681;SDS011;12802;53.390;-2.328;2023-07-20T14:18:30;7.68;;;5.03;;
24681;SDS011;12802;53.390;-2.328;2023-07-20T14:20:56;7.50;;;5.90;;
24681;SDS011;12802;53.390;-2.328;2023-07-20T14:23:22;8.57;;;5.68;;
24681;SDS011;12802;53.390;-2.328;2023-07-20T14:25:48;8.63;;;6.13;;
24681;SDS011;12802;53.390;-2.328;2023-07-20T14:28:14;8.52;;;5.40;;
24681;SDS011;12802;53.390;-2.328;2023-07-20T14:30:41;9.35;;;5.68;;
24681;SDS011;12802;53.390;-2.328;2023-07-20T14:33:07;8.02;;;6.18;;
24681;SDS011;12802;53.390;-2.328;2023-07-20T14:35:35;10.35;;;5.63;;